sensor_id;sensor_type;location;lat;lon;timestamp;pressure;altitude;pressure_sealevel;temperature;humidity
33913;BME280;20200;52.084;5.224;2022-08-14T00:01:37;101102.0;;;23.66;44.07
33913;BME280;20200;52.084;5.224;2022-08-14T00:05:15;101099.0;;;23.63;44.15
33913;BME280;20200;52.084;5.224;2022-08-14T00:07:06;101097.0;;;23.64;43.94
33913;BME280;20200;52.084;5.224;2022-08-14T00:08:55;101093.0;;;23.65;44.24
33913;BME280;20200;52.084;5.224;2022-08-14T00:10:42;101090.0;;;23.72;44.21
33913;BME280;20200;52.084;5.224;2022-08-14T00:12:30;101087.0;;;23.71;43.87
33913;BME280;20200;52.084;5.224;2022-08-14T00:14:20;101083.0;;;23.64;44.12
33913;BME280;20200;52.084;5.224;2022-08-14T00:16:07;101082.0;;;23.69;44.15
33913;BME280;20200;52.084;5.224;2022-08-14T00:19:42;101080.0;;;23.65;44.08
33913;BME280;20200;52.084;5.224;2022-08-14T00:21:29;101076.0;;;23.72;44.13
33913;BME280;20200;52.084;5.224;2022-08-14T00:23:17;101080.0;;;23.63;44.26
33913;BME280;20200;52.084;5.224;2022-08-14T00:25:05;101080.0;;;23.62;44.41
33913;BME280;20200;52.084;5.224;2022-08-14T00:26:52;101073.0;;;23.55;44.76
33913;BME280;20200;52.084;5.224;2022-08-14T00:28:39;101070.0;;;23.52;44.9
33913;BME280;20200;52.084;5.224;2022-08-14T00:32:12;101069.0;;;23.45;45.12
33913;BME280;20200;52.084;5.224;2022-08-14T00:33:59;101067.0;;;23.44;45.24
33913;BME280;20200;52.084;5.224;2022-08-14T00:35:46;101060.0;;;23.41;45.41
33913;BME280;20200;52.084;5.224;2022-08-14T00:37:34;101060.0;;;23.41;45.44
33913;BME280;20200;52.084;5.224;2022-08-14T00:39:24;101063.0;;;23.37;45.7
33913;BME280;20200;52.084;5.224;2022-08-14T00:41:11;101059.0;;;23.26;45.87
33913;BME280;20200;52.084;5.224;2022-08-14T00:44:44;101055.0;;;23.22;46.1
33913;BME280;20200;52.084;5.224;2022-08-14T00:46:32;101056.0;;;23.19;46.64
33913;BME280;20200;52.084;5.224;2022-08-14T00:48:19;101050.0;;;23.22;46.21
33913;BME280;20200;52.084;5.224;2022-08-14T00:50:09;101048.0;;;23.2;46.18
33913;BME280;20200;52.084;5.224;2022-08-14T00:51:59;101044.0;;;23.19;46.38
33913;BME280;20200;52.084;5.224;2022-08-14T00:53:49;101040.0;;;23.1;46.85
33913;BME280;20200;52.084;5.224;2022-08-14T00:57:31;101042.0;;;23.01;47.43
33913;BME280;20200;52.084;5.224;2022-08-14T00:59:19;101040.0;;;22.97;47.21
33913;BME280;20200;52.084;5.224;2022-08-14T01:01:10;101037.0;;;23.01;47.18
33913;BME280;20200;52.084;5.224;2022-08-14T01:02:56;101032.0;;;22.99;47.32
33913;BME280;20200;52.084;5.224;2022-08-14T01:04:44;101034.0;;;22.91;47.74
33913;BME280;20200;52.084;5.224;2022-08-14T01:06:34;101035.0;;;22.93;47.53
33913;BME280;20200;52.084;5.224;2022-08-14T01:08:23;101030.0;;;22.85;47.93
33913;BME280;20200;52.084;5.224;2022-08-14T01:11:58;101032.0;;;22.88;47.83
33913;BME280;20200;52.084;5.224;2022-08-14T01:13:46;101027.0;;;22.82;48.34
33913;BME280;20200;52.084;5.224;2022-08-14T01:15:34;101027.0;;;22.79;48.35
33913;BME280;20200;52.084;5.224;2022-08-14T01:17:22;101026.0;;;22.72;48.65
33913;BME280;20200;52.084;5.224;2022-08-14T01:22:12;101025.0;;;22.77;48.72
33913;BME280;20200;52.084;5.224;2022-08-14T01:24:00;101021.0;;;22.69;49.14
33913;BME280;20200;52.084;5.224;2022-08-14T01:25:50;101014.0;;;22.69;49.21
33913;BME280;20200;52.084;5.224;2022-08-14T01:27:43;101008.0;;;22.74;49.42
33913;BME280;20200;52.084;5.224;2022-08-14T01:29:31;101008.0;;;22.64;49.38
33913;BME280;20200;52.084;5.224;2022-08-14T01:31:23;101008.0;;;22.62;49.66
33913;BME280;20200;52.084;5.224;2022-08-14T01:34:58;101000.0;;;22.57;49.8
33913;BME280;20200;52.084;5.224;2022-08-14T01:36:45;101000.0;;;22.56;50.15
33913;BME280;20200;52.084;5.224;2022-08-14T01:38:34;100995.0;;;22.52;50.19
33913;BME280;20200;52.084;5.224;2022-08-14T01:40:22;100995.0;;;22.49;50.23
33913;BME280;20200;52.084;5.224;2022-08-14T01:42:10;100997.0;;;22.48;50.58
33913;BME280;20200;52.084;5.224;2022-08-14T01:44:02;100999.0;;;22.47;50.58
33913;BME280;20200;52.084;5.224;2022-08-14T01:47:38;100997.0;;;22.35;51.05
33913;BME280;20200;52.084;5.224;2022-08-14T01:49:27;100994.0;;;22.32;51.14
33913;BME280;20200;52.084;5.224;2022-08-14T01:51:19;100993.0;;;22.32;51.25
33913;BME280;20200;52.084;5.224;2022-08-14T01:53:09;100993.0;;;22.31;51.48
33913;BME280;20200;52.084;5.224;2022-08-14T01:54:56;100991.0;;;22.35;51.32
33913;BME280;20200;52.084;5.224;2022-08-14T01:56:43;100990.0;;;22.21;51.95
33913;BME280;20200;52.084;5.224;2022-08-14T02:00:17;100990.0;;;22.2;51.77
33913;BME280;20200;52.084;5.224;2022-08-14T02:02:11;100987.0;;;22.15;51.98
33913;BME280;20200;52.084;5.224;2022-08-14T02:03:58;100988.0;;;22.13;52.08
33913;BME280;20200;52.084;5.224;2022-08-14T02:05:45;100990.0;;;22.01;52.82
33913;BME280;20200;52.084;5.224;2022-08-14T02:07:35;100983.0;;;22.05;52.5
33913;BME280;20200;52.084;5.224;2022-08-14T02:09:23;100984.0;;;22.02;52.34
33913;BME280;20200;52.084;5.224;2022-08-14T02:11:26;100980.0;;;22.02;52.7
33913;BME280;20200;52.084;5.224;2022-08-14T02:13:14;100982.0;;;22.06;52.83
33913;BME280;20200;52.084;5.224;2022-08-14T02:16:52;100981.0;;;22.0;53.11
33913;BME280;20200;52.084;5.224;2022-08-14T02:18:39;100980.0;;;21.81;53.8
33913;BME280;20200;52.084;5.224;2022-08-14T02:20:28;100982.0;;;21.7;54.01
33913;BME280;20200;52.084;5.224;2022-08-14T02:22:18;100984.0;;;21.7;53.75
33913;BME280;20200;52.084;5.224;2022-08-14T02:24:05;100980.0;;;21.65;54.2
33913;BME280;20200;52.084;5.224;2022-08-14T02:25:53;100980.0;;;21.67;54.27
33913;BME280;20200;52.084;5.224;2022-08-14T02:29:29;100982.0;;;21.62;54.01
33913;BME280;20200;52.084;5.224;2022-08-14T02:31:17;100984.0;;;21.5;54.49
33913;BME280;20200;52.084;5.224;2022-08-14T02:33:04;100980.0;;;21.53;54.61
33913;BME280;20200;52.084;5.224;2022-08-14T02:34:52;100980.0;;;21.51;54.96
33913;BME280;20200;52.084;5.224;2022-08-14T02:36:40;100980.0;;;21.46;54.91
33913;BME280;20200;52.084;5.224;2022-08-14T02:38:27;100980.0;;;21.55;54.53
33913;BME280;20200;52.084;5.224;2022-08-14T02:42:01;100980.0;;;21.39;55.16
33913;BME280;20200;52.084;5.224;2022-08-14T02:43:50;100980.0;;;21.33;55.41
33913;BME280;20200;52.084;5.224;2022-08-14T02:45:36;100977.0;;;21.31;55.67
33913;BME280;20200;52.084;5.224;2022-08-14T02:47:24;100976.0;;;21.32;55.45
33913;BME280;20200;52.084;5.224;2022-08-14T02:49:13;100980.0;;;21.25;55.57
33913;BME280;20200;52.084;5.224;2022-08-14T02:51:01;100980.0;;;21.19;55.98
33913;BME280;20200;52.084;5.224;2022-08-14T02:54:40;100976.0;;;21.15;56.27
33913;BME280;20200;52.084;5.224;2022-08-14T02:56:27;100974.0;;;21.18;56.25
33913;BME280;20200;52.084;5.224;2022-08-14T02:58:13;100971.0;;;21.2;56.22
33913;BME280;20200;52.084;5.224;2022-08-14T03:00:03;100970.0;;;21.15;56.26
33913;BME280;20200;52.084;5.224;2022-08-14T03:01:53;100971.0;;;21.1;56.6
33913;BME280;20200;52.084;5.224;2022-08-14T03:03:41;100967.0;;;21.08;56.72
33913;BME280;20200;52.084;5.224;2022-08-14T03:05:29;100967.0;;;21.07;56.44
33913;BME280;20200;52.084;5.224;2022-08-14T03:09:05;100963.0;;;21.05;56.76
33913;BME280;20200;52.084;5.224;2022-08-14T03:10:51;100966.0;;;21.06;56.77
33913;BME280;20200;52.084;5.224;2022-08-14T03:12:38;100964.0;;;20.97;57.12
33913;BME280;20200;52.084;5.224;2022-08-14T03:14:25;100969.0;;;20.91;57.39
33913;BME280;20200;52.084;5.224;2022-08-14T03:16:20;100964.0;;;20.96;57.11
33913;BME280;20200;52.084;5.224;2022-08-14T03:18:10;100967.0;;;20.89;57.49
33913;BME280;20200;52.084;5.224;2022-08-14T03:21:44;100965.0;;;20.86;57.77
33913;BME280;20200;52.084;5.224;2022-08-14T03:23:33;100967.0;;;20.78;58.06
33913;BME280;20200;52.084;5.224;2022-08-14T03:25:21;100963.0;;;20.82;57.8
33913;BME280;20200;52.084;5.224;2022-08-14T03:27:08;100964.0;;;20.84;57.82
33913;BME280;20200;52.084;5.224;2022-08-14T03:29:02;100959.0;;;20.63;58.54
33913;BME280;20200;52.084;5.224;2022-08-14T03:30:50;100957.0;;;20.61;58.59
33913;BME280;20200;52.084;5.224;2022-08-14T03:34:24;100958.0;;;20.6;58.94
33913;BME280;20200;52.084;5.224;2022-08-14T03:36:15;100958.0;;;20.55;59.07
33913;BME280;20200;52.084;5.224;2022-08-14T03:38:04;100955.0;;;20.56;58.9
33913;BME280;20200;52.084;5.224;2022-08-14T03:39:52;100952.0;;;20.6;58.81
33913;BME280;20200;52.084;5.224;2022-08-14T03:41:40;100949.0;;;20.54;58.98
33913;BME280;20200;52.084;5.224;2022-08-14T03:43:26;100952.0;;;20.46;59.26
33913;BME280;20200;52.084;5.224;2022-08-14T03:45:14;100951.0;;;20.54;58.95
33913;BME280;20200;52.084;5.224;2022-08-14T03:48:50;100949.0;;;20.52;59.25
33913;BME280;20200;52.084;5.224;2022-08-14T03:50:37;100943.0;;;20.43;59.24
33913;BME280;20200;52.084;5.224;2022-08-14T03:52:24;100941.0;;;20.38;59.58
33913;BME280;20200;52.084;5.224;2022-08-14T03:54:11;100948.0;;;20.3;59.86
33913;BME280;20200;52.084;5.224;2022-08-14T03:55:58;100945.0;;;20.28;59.94
33913;BME280;20200;52.084;5.224;2022-08-14T03:59:34;100946.0;;;20.3;59.88
33913;BME280;20200;52.084;5.224;2022-08-14T04:01:24;100947.0;;;20.25;60.51
33913;BME280;20200;52.084;5.224;2022-08-14T04:03:12;100944.0;;;20.16;60.74
33913;BME280;20200;52.084;5.224;2022-08-14T04:04:59;100949.0;;;20.13;60.63
33913;BME280;20200;52.084;5.224;2022-08-14T04:06:46;100951.0;;;20.04;61.15
33913;BME280;20200;52.084;5.224;2022-08-14T04:08:34;100947.0;;;20.0;61.07
33913;BME280;20200;52.084;5.224;2022-08-14T04:10:21;100947.0;;;19.91;61.81
33913;BME280;20200;52.084;5.224;2022-08-14T04:13:56;100944.0;;;19.93;61.66
33913;BME280;20200;52.084;5.224;2022-08-14T04:15:43;100946.0;;;19.95;61.26
33913;BME280;20200;52.084;5.224;2022-08-14T04:17:32;100946.0;;;19.88;61.68
33913;BME280;20200;52.084;5.224;2022-08-14T04:19:22;100946.0;;;19.84;62.02
33913;BME280;20200;52.084;5.224;2022-08-14T04:21:10;100942.0;;;19.89;61.59
33913;BME280;20200;52.084;5.224;2022-08-14T04:22:57;100941.0;;;19.77;62.47
33913;BME280;20200;52.084;5.224;2022-08-14T04:26:32;100934.0;;;19.71;62.6
33913;BME280;20200;52.084;5.224;2022-08-14T04:28:19;100937.0;;;19.66;62.86
33913;BME280;20200;52.084;5.224;2022-08-14T04:30:08;100938.0;;;19.55;63.29
33913;BME280;20200;52.084;5.224;2022-08-14T04:31:55;100936.0;;;19.59;62.82
33913;BME280;20200;52.084;5.224;2022-08-14T04:33:42;100937.0;;;19.59;63.33
33913;BME280;20200;52.084;5.224;2022-08-14T04:35:29;100934.0;;;19.66;62.96
33913;BME280;20200;52.084;5.224;2022-08-14T04:43:39;100935.0;;;19.59;63.45
33913;BME280;20200;52.084;5.224;2022-08-14T04:48:26;100935.0;;;19.59;63.4
33913;BME280;20200;52.084;5.224;2022-08-14T04:50:13;100931.0;;;19.7;63.34
33913;BME280;20200;52.084;5.224;2022-08-14T04:53:50;100935.0;;;19.66;63.72
33913;BME280;20200;52.084;5.224;2022-08-14T04:55:39;100931.0;;;19.61;64.12
33913;BME280;20200;52.084;5.224;2022-08-14T04:57:26;100930.0;;;19.55;64.42
33913;BME280;20200;52.084;5.224;2022-08-14T04:59:13;100930.0;;;19.53;64.69
33913;BME280;20200;52.084;5.224;2022-08-14T05:01:03;100927.0;;;19.52;64.64
33913;BME280;20200;52.084;5.224;2022-08-14T05:02:52;100930.0;;;19.55;64.6
33913;BME280;20200;52.084;5.224;2022-08-14T05:06:28;100926.0;;;19.7;64.49
33913;BME280;20200;52.084;5.224;2022-08-14T05:08:15;100926.0;;;19.71;64.22
33913;BME280;20200;52.084;5.224;2022-08-14T05:10:04;100924.0;;;19.71;64.1
33913;BME280;20200;52.084;5.224;2022-08-14T05:11:52;100917.0;;;19.75;64.41
33913;BME280;20200;52.084;5.224;2022-08-14T05:13:39;100911.0;;;19.8;63.92
33913;BME280;20200;52.084;5.224;2022-08-14T05:15:29;100907.0;;;19.86;63.74
33913;BME280;20200;52.084;5.224;2022-08-14T05:17:18;100912.0;;;19.89;63.72
33913;BME280;20200;52.084;5.224;2022-08-14T05:20:55;100909.0;;;19.91;63.96
33913;BME280;20200;52.084;5.224;2022-08-14T05:22:42;100910.0;;;19.91;63.9
33913;BME280;20200;52.084;5.224;2022-08-14T05:24:30;100908.0;;;19.97;63.82
33913;BME280;20200;52.084;5.224;2022-08-14T05:26:20;100905.0;;;20.05;63.64
33913;BME280;20200;52.084;5.224;2022-08-14T05:28:08;100901.0;;;20.03;63.93
33913;BME280;20200;52.084;5.224;2022-08-14T05:29:55;100897.0;;;20.14;63.32
33913;BME280;20200;52.084;5.224;2022-08-14T05:33:30;100893.0;;;20.18;63.45
33913;BME280;20200;52.084;5.224;2022-08-14T05:35:20;100897.0;;;20.28;63.15
33913;BME280;20200;52.084;5.224;2022-08-14T05:37:06;100898.0;;;20.27;62.92
33913;BME280;20200;52.084;5.224;2022-08-14T05:38:53;100894.0;;;20.25;63.21
33913;BME280;20200;52.084;5.224;2022-08-14T05:40:41;100894.0;;;20.34;63.2
33913;BME280;20200;52.084;5.224;2022-08-14T05:42:28;100892.0;;;20.46;63.03
33913;BME280;20200;52.084;5.224;2022-08-14T05:46:02;100888.0;;;20.53;62.61
33913;BME280;20200;52.084;5.224;2022-08-14T05:47:49;100881.0;;;20.58;62.59
33913;BME280;20200;52.084;5.224;2022-08-14T05:49:36;100884.0;;;20.65;62.26
33913;BME280;20200;52.084;5.224;2022-08-14T05:51:24;100885.0;;;20.73;62.22
33913;BME280;20200;52.084;5.224;2022-08-14T05:53:11;100883.0;;;20.7;62.37
33913;BME280;20200;52.084;5.224;2022-08-14T05:54:59;100884.0;;;20.79;61.95
33913;BME280;20200;52.084;5.224;2022-08-14T05:58:32;100885.0;;;20.88;61.84
33913;BME280;20200;52.084;5.224;2022-08-14T06:00:21;100887.0;;;20.87;61.9
33913;BME280;20200;52.084;5.224;2022-08-14T06:02:09;100882.0;;;20.9;61.76
33913;BME280;20200;52.084;5.224;2022-08-14T06:03:56;100888.0;;;21.04;61.55
33913;BME280;20200;52.084;5.224;2022-08-14T06:05:45;100885.0;;;21.03;61.43
33913;BME280;20200;52.084;5.224;2022-08-14T06:07:34;100884.0;;;21.11;61.02
33913;BME280;20200;52.084;5.224;2022-08-14T06:11:09;100883.0;;;21.21;60.91
33913;BME280;20200;52.084;5.224;2022-08-14T06:12:57;100882.0;;;21.26;60.78
33913;BME280;20200;52.084;5.224;2022-08-14T06:14:43;100881.0;;;21.31;60.73
33913;BME280;20200;52.084;5.224;2022-08-14T06:16:29;100878.0;;;21.37;60.92
33913;BME280;20200;52.084;5.224;2022-08-14T06:18:17;100882.0;;;21.41;60.42
33913;BME280;20200;52.084;5.224;2022-08-14T06:20:03;100876.0;;;21.46;60.32
33913;BME280;20200;52.084;5.224;2022-08-14T06:23:37;100878.0;;;21.51;60.02
33913;BME280;20200;52.084;5.224;2022-08-14T06:25:25;100880.0;;;21.62;59.79
33913;BME280;20200;52.084;5.224;2022-08-14T06:27:11;100880.0;;;21.7;59.8
33913;BME280;20200;52.084;5.224;2022-08-14T06:28:59;100880.0;;;21.77;59.34
33913;BME280;20200;52.084;5.224;2022-08-14T06:30:46;100880.0;;;21.87;59.02
33913;BME280;20200;52.084;5.224;2022-08-14T06:34:20;100876.0;;;21.92;59.26
33913;BME280;20200;52.084;5.224;2022-08-14T06:36:07;100875.0;;;22.09;58.7
33913;BME280;20200;52.084;5.224;2022-08-14T06:37:55;100878.0;;;22.11;58.8
33913;BME280;20200;52.084;5.224;2022-08-14T06:39:45;100880.0;;;22.15;58.62
33913;BME280;20200;52.084;5.224;2022-08-14T06:41:33;100887.0;;;22.23;58.02
33913;BME280;20200;52.084;5.224;2022-08-14T06:43:20;100884.0;;;22.26;57.91
33913;BME280;20200;52.084;5.224;2022-08-14T06:46:55;100881.0;;;22.34;57.7
33913;BME280;20200;52.084;5.224;2022-08-14T06:48:41;100882.0;;;22.46;57.54
33913;BME280;20200;52.084;5.224;2022-08-14T06:52:16;100882.0;;;22.56;57.55
33913;BME280;20200;52.084;5.224;2022-08-14T06:54:03;100883.0;;;22.67;57.58
33913;BME280;20200;52.084;5.224;2022-08-14T06:55:50;100878.0;;;22.79;57.07
33913;BME280;20200;52.084;5.224;2022-08-14T06:59:27;100876.0;;;22.8;56.94
33913;BME280;20200;52.084;5.224;2022-08-14T07:07:35;100866.0;;;23.13;55.96
33913;BME280;20200;52.084;5.224;2022-08-14T07:09:23;100866.0;;;23.31;55.86
33913;BME280;20200;52.084;5.224;2022-08-14T07:11:11;100860.0;;;23.35;55.63
33913;BME280;20200;52.084;5.224;2022-08-14T07:12:58;100856.0;;;23.41;55.06
33913;BME280;20200;52.084;5.224;2022-08-14T07:14:45;100859.0;;;23.5;55.24
33913;BME280;20200;52.084;5.224;2022-08-14T07:16:32;100859.0;;;23.6;54.87
33913;BME280;20200;52.084;5.224;2022-08-14T07:20:09;100855.0;;;23.67;54.81
33913;BME280;20200;52.084;5.224;2022-08-14T07:21:56;100857.0;;;23.61;54.61
33913;BME280;20200;52.084;5.224;2022-08-14T07:23:44;100860.0;;;23.68;54.68
33913;BME280;20200;52.084;5.224;2022-08-14T07:25:32;100855.0;;;23.81;54.25
33913;BME280;20200;52.084;5.224;2022-08-14T07:27:20;100860.0;;;23.88;53.78
33913;BME280;20200;52.084;5.224;2022-08-14T07:29:07;100856.0;;;23.97;53.53
33913;BME280;20200;52.084;5.224;2022-08-14T07:32:46;100852.0;;;24.05;53.09
33913;BME280;20200;52.084;5.224;2022-08-14T07:34:33;100848.0;;;24.21;52.85
33913;BME280;20200;52.084;5.224;2022-08-14T07:36:20;100846.0;;;24.12;53.0
33913;BME280;20200;52.084;5.224;2022-08-14T07:38:07;100844.0;;;24.27;52.54
33913;BME280;20200;52.084;5.224;2022-08-14T07:40:04;100842.0;;;24.45;52.14
33913;BME280;20200;52.084;5.224;2022-08-14T07:41:50;100841.0;;;24.53;51.93
33913;BME280;20200;52.084;5.224;2022-08-14T07:45:26;100843.0;;;24.65;51.25
33913;BME280;20200;52.084;5.224;2022-08-14T07:47:16;100844.0;;;24.6;51.93
33913;BME280;20200;52.084;5.224;2022-08-14T07:49:03;100844.0;;;24.71;51.3
33913;BME280;20200;52.084;5.224;2022-08-14T07:50:51;100842.0;;;24.75;50.78
33913;BME280;20200;52.084;5.224;2022-08-14T07:52:39;100841.0;;;24.73;51.16
33913;BME280;20200;52.084;5.224;2022-08-14T07:54:27;100842.0;;;24.88;50.9
33913;BME280;20200;52.084;5.224;2022-08-14T07:58:03;100840.0;;;24.88;50.97
33913;BME280;20200;52.084;5.224;2022-08-14T07:59:50;100843.0;;;25.04;50.1
33913;BME280;20200;52.084;5.224;2022-08-14T08:01:38;100840.0;;;25.19;50.08
33913;BME280;20200;52.084;5.224;2022-08-14T08:03:27;100841.0;;;25.36;50.39
33913;BME280;20200;52.084;5.224;2022-08-14T08:05:20;100835.0;;;25.47;50.05
33913;BME280;20200;52.084;5.224;2022-08-14T08:07:07;100837.0;;;25.52;49.06
33913;BME280;20200;52.084;5.224;2022-08-14T08:08:57;100830.0;;;25.66;48.55
33913;BME280;20200;52.084;5.224;2022-08-14T08:12:33;100826.0;;;25.63;48.25
33913;BME280;20200;52.084;5.224;2022-08-14T08:14:20;100828.0;;;25.68;47.33
33913;BME280;20200;52.084;5.224;2022-08-14T08:16:08;100825.0;;;25.62;47.58
33913;BME280;20200;52.084;5.224;2022-08-14T08:17:54;100827.0;;;25.6;47.76
33913;BME280;20200;52.084;5.224;2022-08-14T08:19:41;100819.0;;;25.56;47.41
33913;BME280;20200;52.084;5.224;2022-08-14T08:21:29;100818.0;;;25.68;47.52
33913;BME280;20200;52.084;5.224;2022-08-14T08:25:06;100817.0;;;25.81;47.13
33913;BME280;20200;52.084;5.224;2022-08-14T08:26:52;100818.0;;;26.07;47.23
33913;BME280;20200;52.084;5.224;2022-08-14T08:28:40;100817.0;;;26.18;47.45
33913;BME280;20200;52.084;5.224;2022-08-14T08:30:28;100812.0;;;26.04;46.41
33913;BME280;20200;52.084;5.224;2022-08-14T08:32:17;100814.0;;;26.26;46.57
33913;BME280;20200;52.084;5.224;2022-08-14T08:34:04;100803.0;;;26.44;46.38
33913;BME280;20200;52.084;5.224;2022-08-14T08:37:43;100805.0;;;26.46;45.86
33913;BME280;20200;52.084;5.224;2022-08-14T08:39:41;100800.0;;;26.5;45.45
33913;BME280;20200;52.084;5.224;2022-08-14T08:41:38;100799.0;;;26.46;44.94
33913;BME280;20200;52.084;5.224;2022-08-14T08:43:28;100802.0;;;26.61;45.05
33913;BME280;20200;52.084;5.224;2022-08-14T08:45:16;100800.0;;;26.72;44.76
33913;BME280;20200;52.084;5.224;2022-08-14T08:47:07;100805.0;;;26.79;45.19
33913;BME280;20200;52.084;5.224;2022-08-14T08:48:55;100809.0;;;27.03;44.8
33913;BME280;20200;52.084;5.224;2022-08-14T08:50:41;100812.0;;;27.17;44.5
33913;BME280;20200;52.084;5.224;2022-08-14T08:54:15;100815.0;;;27.25;44.44
33913;BME280;20200;52.084;5.224;2022-08-14T08:56:02;100808.0;;;27.3;43.93
33913;BME280;20200;52.084;5.224;2022-08-14T08:57:53;100816.0;;;27.23;44.2
33913;BME280;20200;52.084;5.224;2022-08-14T08:59:40;100813.0;;;27.41;43.8
33913;BME280;20200;52.084;5.224;2022-08-14T09:01:29;100807.0;;;27.45;43.87
33913;BME280;20200;52.084;5.224;2022-08-14T09:03:18;100801.0;;;27.51;44.7
33913;BME280;20200;52.084;5.224;2022-08-14T09:06:54;100791.0;;;27.71;44.82
33913;BME280;20200;52.084;5.224;2022-08-14T09:08:44;100790.0;;;27.79;44.42
33913;BME280;20200;52.084;5.224;2022-08-14T09:10:30;100789.0;;;27.86;44.25
33913;BME280;20200;52.084;5.224;2022-08-14T09:12:18;100787.0;;;27.78;44.58
33913;BME280;20200;52.084;5.224;2022-08-14T09:14:06;100783.0;;;28.08;43.54
33913;BME280;20200;52.084;5.224;2022-08-14T09:15:54;100782.0;;;28.25;43.14
33913;BME280;20200;52.084;5.224;2022-08-14T09:19:30;100778.0;;;28.23;41.99
33913;BME280;20200;52.084;5.224;2022-08-14T09:21:18;100776.0;;;28.33;40.9
33913;BME280;20200;52.084;5.224;2022-08-14T09:23:06;100778.0;;;28.35;39.64
33913;BME280;20200;52.084;5.224;2022-08-14T09:24:54;100784.0;;;28.54;40.24
33913;BME280;20200;52.084;5.224;2022-08-14T09:26:43;100785.0;;;28.72;40.61
33913;BME280;20200;52.084;5.224;2022-08-14T09:28:30;100776.0;;;28.8;40.76
33913;BME280;20200;52.084;5.224;2022-08-14T09:32:04;100772.0;;;28.91;41.04
33913;BME280;20200;52.084;5.224;2022-08-14T09:34:00;100766.0;;;28.9;40.24
33913;BME280;20200;52.084;5.224;2022-08-14T09:36:02;100763.0;;;29.09;39.4
33913;BME280;20200;52.084;5.224;2022-08-14T09:38:06;100762.0;;;29.19;39.28
33913;BME280;20200;52.084;5.224;2022-08-14T09:40:15;100759.0;;;29.19;38.81
33913;BME280;20200;52.084;5.224;2022-08-14T09:42:25;100755.0;;;29.3;39.04
33913;BME280;20200;52.084;5.224;2022-08-14T09:45:31;100756.0;;;29.48;36.97
33913;BME280;20200;52.084;5.224;2022-08-14T09:47:20;100755.0;;;29.61;36.26
33913;BME280;20200;52.084;5.224;2022-08-14T09:50:56;100745.0;;;29.74;36.08
33913;BME280;20200;52.084;5.224;2022-08-14T09:52:48;100743.0;;;29.81;36.35
33913;BME280;20200;52.084;5.224;2022-08-14T09:54:44;100742.0;;;29.88;35.25
33913;BME280;20200;52.084;5.224;2022-08-14T09:56:44;100739.0;;;29.98;34.96
33913;BME280;20200;52.084;5.224;2022-08-14T09:58:36;100736.0;;;30.01;35.06
33913;BME280;20200;52.084;5.224;2022-08-14T10:00:39;100733.0;;;30.13;34.53
33913;BME280;20200;52.084;5.224;2022-08-14T10:02:31;100720.0;;;30.13;34.53
33913;BME280;20200;52.084;5.224;2022-08-14T10:04:21;100722.0;;;30.31;33.76
33913;BME280;20200;52.084;5.224;2022-08-14T10:06:10;100721.0;;;30.53;33.89
33913;BME280;20200;52.084;5.224;2022-08-14T10:09:49;100717.0;;;30.52;33.94
33913;BME280;20200;52.084;5.224;2022-08-14T10:11:37;100716.0;;;30.73;34.14
33913;BME280;20200;52.084;5.224;2022-08-14T10:13:25;100706.0;;;30.75;34.24
33913;BME280;20200;52.084;5.224;2022-08-14T10:15:16;100709.0;;;30.76;33.65
33913;BME280;20200;52.084;5.224;2022-08-14T10:17:04;100703.0;;;30.93;33.1
33913;BME280;20200;52.084;5.224;2022-08-14T10:19:02;100706.0;;;31.1;32.51
33913;BME280;20200;52.084;5.224;2022-08-14T10:20:52;100703.0;;;31.25;32.21
33913;BME280;20200;52.084;5.224;2022-08-14T10:24:31;100702.0;;;31.2;32.18
33913;BME280;20200;52.084;5.224;2022-08-14T10:26:23;100697.0;;;31.19;32.79
33913;BME280;20200;52.084;5.224;2022-08-14T10:28:14;100690.0;;;31.3;32.39
33913;BME280;20200;52.084;5.224;2022-08-14T10:30:12;100693.0;;;31.41;32.33
33913;BME280;20200;52.084;5.224;2022-08-14T10:32:00;100689.0;;;31.4;32.55
33913;BME280;20200;52.084;5.224;2022-08-14T10:34:05;100684.0;;;31.44;32.6
33913;BME280;20200;52.084;5.224;2022-08-14T10:35:52;100682.0;;;31.48;32.18
33913;BME280;20200;52.084;5.224;2022-08-14T10:37:42;100676.0;;;31.51;32.36
33913;BME280;20200;52.084;5.224;2022-08-14T10:39:34;100671.0;;;31.61;31.82
33913;BME280;20200;52.084;5.224;2022-08-14T10:43:25;100669.0;;;31.6;32.54
33913;BME280;20200;52.084;5.224;2022-08-14T10:45:20;100671.0;;;31.78;31.8
33913;BME280;20200;52.084;5.224;2022-08-14T10:47:09;100668.0;;;31.76;31.31
33913;BME280;20200;52.084;5.224;2022-08-14T10:48:58;100661.0;;;31.78;31.5
33913;BME280;20200;52.084;5.224;2022-08-14T10:50:50;100662.0;;;31.87;32.11
33913;BME280;20200;52.084;5.224;2022-08-14T10:52:38;100663.0;;;32.05;32.0
33913;BME280;20200;52.084;5.224;2022-08-14T10:54:31;100662.0;;;32.14;32.19
33913;BME280;20200;52.084;5.224;2022-08-14T10:56:27;100661.0;;;32.29;31.9
33913;BME280;20200;52.084;5.224;2022-08-14T11:00:17;100656.0;;;31.88;31.92
33913;BME280;20200;52.084;5.224;2022-08-14T11:02:16;100653.0;;;32.17;30.91
33913;BME280;20200;52.084;5.224;2022-08-14T11:04:04;100658.0;;;32.29;30.96
33913;BME280;20200;52.084;5.224;2022-08-14T11:05:51;100651.0;;;32.4;30.94
33913;BME280;20200;52.084;5.224;2022-08-14T11:07:42;100651.0;;;32.56;31.08
33913;BME280;20200;52.084;5.224;2022-08-14T11:09:38;100642.0;;;32.65;30.49
33913;BME280;20200;52.084;5.224;2022-08-14T11:11:26;100644.0;;;32.86;29.63
33913;BME280;20200;52.084;5.224;2022-08-14T11:13:15;100638.0;;;33.03;29.98
33913;BME280;20200;52.084;5.224;2022-08-14T11:15:03;100630.0;;;33.3;29.58
33913;BME280;20200;52.084;5.224;2022-08-14T11:18:38;100637.0;;;33.11;29.41
33913;BME280;20200;52.084;5.224;2022-08-14T11:20:30;100636.0;;;33.58;29.13
33913;BME280;20200;52.084;5.224;2022-08-14T11:22:17;100632.0;;;33.6;28.7
33913;BME280;20200;52.084;5.224;2022-08-14T11:24:09;100632.0;;;33.53;27.8
33913;BME280;20200;52.084;5.224;2022-08-14T11:26:00;100634.0;;;33.78;27.1
33913;BME280;20200;52.084;5.224;2022-08-14T11:27:50;100635.0;;;33.74;27.58